createdAt,value
2017-09-16T00:01:31.615Z,5.30
2017-09-16T00:04:01.932Z,4.37
2017-09-16T00:06:32.390Z,5.57
2017-09-16T00:09:02.715Z,5.90
2017-09-16T00:11:33.400Z,6.50
2017-09-16T00:14:04.725Z,5.83
2017-09-16T00:16:35.074Z,5.63
2017-09-16T00:19:05.455Z,8.37
2017-09-16T00:21:37.441Z,5.60
2017-09-16T00:24:09.292Z,6.10
2017-09-16T00:26:39.569Z,5.97
2017-09-16T00:29:09.935Z,6.63
2017-09-16T00:31:40.634Z,6.80
2017-09-16T00:34:11.132Z,6.20
2017-09-16T00:36:41.629Z,8.40
2017-09-16T00:39:13.586Z,6.17
2017-09-16T00:41:44.078Z,8.20
2017-09-16T00:44:14.387Z,6.40
2017-09-16T00:46:45.434Z,6.33
2017-09-16T00:49:16.028Z,6.93
2017-09-16T00:51:46.773Z,6.83
2017-09-16T00:54:17.532Z,7.33
2017-09-16T00:56:48.140Z,7.13
2017-09-16T00:59:18.547Z,7.17
2017-09-16T01:01:48.876Z,8.00
2017-09-16T01:04:19.219Z,6.93
2017-09-16T01:06:49.679Z,8.97
2017-09-16T01:09:21.051Z,7.53
2017-09-16T01:11:51.598Z,7.57
2017-09-16T01:14:22.154Z,6.73
2017-09-16T01:16:52.566Z,7.60
2017-09-16T01:19:22.985Z,8.37
2017-09-16T01:21:53.634Z,6.80
2017-09-16T01:24:24.329Z,7.23
2017-09-16T01:26:55.101Z,7.73
2017-09-16T01:29:25.692Z,7.43
2017-09-16T01:31:56.049Z,8.03
2017-09-16T01:34:26.404Z,7.40
2017-09-16T01:36:56.760Z,7.70
2017-09-16T01:39:27.316Z,9.03
2017-09-16T01:41:57.813Z,7.00
2017-09-16T01:44:28.235Z,8.57
2017-09-16T01:46:59.474Z,8.67
2017-09-16T01:49:29.930Z,7.63
2017-09-16T01:52:00.274Z,10.20
2017-09-16T01:54:30.685Z,7.93
2017-09-16T01:57:01.419Z,7.60
2017-09-16T01:59:31.857Z,8.00
2017-09-16T02:02:03.069Z,9.03
2017-09-16T02:04:33.622Z,8.27
2017-09-16T02:07:05.443Z,8.70
2017-09-16T02:09:35.813Z,9.27
2017-09-16T02:12:06.117Z,8.70
2017-09-16T02:14:36.552Z,7.87
2017-09-16T02:17:07.147Z,8.17
2017-09-16T02:19:37.519Z,8.10
2017-09-16T02:22:08.695Z,8.30
2017-09-16T02:24:39.895Z,8.83
2017-09-16T02:27:10.325Z,9.60
2017-09-16T02:29:40.753Z,10.53
2017-09-16T02:32:11.149Z,10.63
2017-09-16T02:34:41.759Z,11.23
2017-09-16T02:37:12.007Z,8.33
2017-09-16T02:39:44.834Z,11.30
2017-09-16T02:42:15.176Z,9.57
2017-09-16T02:44:45.450Z,11.00
2017-09-16T02:47:16.799Z,10.00
2017-09-16T02:49:48.077Z,9.93
2017-09-16T02:52:18.581Z,12.07
2017-09-16T02:54:49.021Z,12.87
2017-09-16T02:57:20.375Z,12.27
2017-09-16T02:59:51.493Z,12.00
2017-09-16T03:02:21.920Z,10.47
2017-09-16T03:04:52.444Z,11.60
2017-09-16T03:07:22.881Z,13.23
2017-09-16T03:09:54.043Z,12.43
2017-09-16T03:12:24.597Z,16.73
2017-09-16T03:14:55.032Z,12.67
2017-09-16T03:17:26.341Z,13.60
2017-09-16T03:19:56.719Z,14.70
2017-09-16T03:22:27.076Z,13.47
2017-09-16T03:24:57.473Z,13.83
2017-09-16T03:27:27.753Z,12.80
2017-09-16T03:29:57.987Z,14.37
2017-09-16T03:32:28.612Z,13.13
2017-09-16T03:34:59.171Z,13.30
2017-09-16T03:37:29.617Z,15.57
2017-09-16T03:40:00.774Z,14.33
2017-09-16T03:42:31.938Z,12.33
2017-09-16T03:45:02.357Z,13.37
2017-09-16T03:47:32.764Z,14.50
2017-09-16T03:50:04.602Z,14.30
2017-09-16T03:52:35.500Z,14.53
2017-09-16T03:55:05.780Z,14.30
2017-09-16T03:57:36.137Z,18.10
2017-09-16T04:00:06.676Z,13.27
2017-09-16T04:02:49.612Z,12.77
2017-09-16T04:05:19.962Z,14.30
2017-09-16T04:07:50.388Z,14.60
2017-09-16T04:10:20.741Z,13.70
2017-09-16T04:12:51.055Z,13.13
2017-09-16T04:15:22.323Z,14.97
2017-09-16T04:17:52.796Z,14.63
2017-09-16T04:20:23.105Z,14.57
2017-09-16T04:23:07.995Z,18.87
2017-09-16T04:25:52.514Z,18.53
2017-09-16T04:28:23.820Z,20.23
2017-09-16T04:30:54.241Z,19.00
2017-09-16T04:33:24.850Z,18.70
2017-09-16T04:35:55.675Z,18.80
2017-09-16T04:38:26.172Z,19.73
2017-09-16T04:40:56.723Z,17.37
2017-09-16T04:43:27.160Z,16.63
2017-09-16T04:45:57.425Z,17.50
2017-09-16T04:48:28.709Z,16.27
2017-09-16T04:50:59.064Z,17.43
2017-09-16T04:53:30.444Z,15.83
2017-09-16T04:56:00.763Z,16.87
2017-09-16T04:58:32.923Z,16.30
2017-09-16T05:01:03.670Z,16.63
2017-09-16T05:03:34.533Z,19.80
2017-09-16T05:06:06.102Z,14.10
2017-09-16T05:08:37.180Z,16.50
2017-09-16T05:11:07.710Z,13.50
2017-09-16T05:13:38.305Z,14.20
2017-09-16T05:16:09.323Z,16.97
2017-09-16T05:18:40.468Z,15.73
2017-09-16T05:21:11.618Z,16.10
2017-09-16T05:23:42.141Z,14.93
2017-09-16T05:26:14.852Z,14.17
2017-09-16T05:28:46.425Z,13.73
2017-09-16T05:31:18.966Z,13.30
2017-09-16T05:33:53.622Z,13.47
2017-09-16T05:36:25.320Z,14.83
2017-09-16T05:38:56.758Z,15.23
2017-09-16T05:41:29.870Z,16.90
2017-09-16T05:44:02.684Z,16.97
2017-09-16T05:46:34.829Z,14.47
2017-09-16T05:49:07.377Z,14.90
2017-09-16T05:51:40.853Z,13.27
2017-09-16T05:54:13.604Z,15.50
2017-09-16T05:56:47.618Z,15.80
2017-09-16T05:59:23.540Z,17.07
2017-09-16T06:01:57.993Z,15.67
2017-09-16T06:04:31.108Z,16.43
2017-09-16T06:07:03.574Z,18.10
2017-09-16T06:09:36.098Z,17.87
2017-09-16T06:12:07.741Z,18.03
2017-09-16T06:14:39.113Z,17.07
2017-09-16T06:17:10.975Z,15.80
2017-09-16T06:19:42.950Z,16.30
2017-09-16T08:01:18.510Z,36.37
2017-09-16T08:03:49.863Z,45.37
2017-09-16T08:06:23.287Z,39.60
2017-09-16T08:08:57.326Z,38.80
2017-09-16T08:11:31.587Z,38.67
2017-09-16T08:14:03.904Z,39.10
2017-09-16T08:16:36.896Z,41.70
2017-09-16T08:19:09.991Z,39.93
2017-09-16T08:21:43.547Z,34.17
2017-09-16T08:24:20.315Z,41.87
2017-09-16T08:26:52.454Z,32.57
2017-09-16T08:29:23.829Z,36.40
2017-09-16T08:31:54.911Z,42.20
2017-09-16T08:34:26.914Z,32.07
2017-09-16T08:36:57.693Z,36.67
2017-09-16T08:39:28.658Z,33.47
2017-09-16T08:42:00.706Z,32.67
2017-09-16T08:44:32.724Z,39.13
2017-09-16T08:47:03.860Z,33.33
2017-09-16T08:49:34.832Z,36.07
2017-09-16T08:52:05.761Z,36.50
2017-09-16T08:54:36.733Z,33.47
2017-09-16T08:57:08.554Z,35.60
2017-09-16T08:59:39.385Z,31.73
2017-09-16T09:02:10.275Z,31.60
2017-09-16T09:04:41.853Z,29.80
2017-09-16T09:07:13.988Z,31.47
2017-09-16T09:09:44.783Z,32.37
2017-09-16T09:12:15.848Z,32.10
2017-09-16T09:14:47.496Z,32.67
2017-09-16T09:17:18.054Z,34.17
2017-09-16T09:19:48.528Z,35.50
2017-09-16T09:22:19.859Z,39.30
2017-09-16T09:24:52.081Z,34.10
2017-09-16T09:27:25.157Z,36.20
2017-09-16T09:29:56.743Z,34.70
2017-09-16T09:32:27.647Z,33.17
2017-09-16T09:34:59.273Z,34.50
2017-09-16T09:37:30.725Z,34.23
2017-09-16T09:40:03.085Z,36.80
2017-09-16T09:42:34.302Z,39.47
2017-09-16T09:45:05.161Z,37.67
2017-09-16T09:47:36.792Z,42.47
2017-09-16T09:50:07.421Z,38.50
2017-09-16T09:52:38.829Z,36.37
2017-09-16T09:55:10.194Z,36.97
2017-09-16T09:57:41.152Z,40.43
2017-09-16T10:00:12.801Z,37.70
2017-09-16T10:02:44.460Z,39.07
2017-09-16T10:05:15.946Z,42.33
2017-09-16T10:07:48.660Z,40.33
2017-09-16T10:10:20.120Z,36.37
2017-09-16T10:12:52.080Z,37.83
2017-09-16T10:15:23.655Z,35.70
2017-09-16T10:17:54.550Z,34.90
2017-09-16T10:20:25.786Z,37.87
2017-09-16T10:22:56.766Z,36.47
2017-09-16T10:25:27.832Z,37.63
2017-09-16T10:27:59.193Z,34.33
2017-09-16T10:30:30.627Z,39.07
2017-09-16T10:33:02.807Z,40.23
2017-09-16T10:35:35.294Z,35.90
2017-09-16T10:38:12.465Z,35.70
2017-09-16T10:40:45.577Z,40.33
2017-09-16T10:43:21.565Z,37.80
2017-09-16T10:46:00.426Z,41.90
2017-09-16T10:48:39.953Z,37.97
2017-09-16T10:51:19.530Z,33.00
2017-09-16T10:53:59.359Z,44.70
2017-09-16T10:56:39.078Z,37.33
2017-09-16T10:59:24.624Z,36.10
2017-09-16T11:02:09.672Z,42.77
2017-09-16T11:04:48.594Z,36.33
2017-09-16T11:07:27.315Z,33.43
2017-09-16T11:10:05.323Z,47.27
2017-09-16T11:12:51.374Z,31.93
2017-09-16T11:15:34.150Z,38.67
2017-09-16T11:18:22.131Z,32.90
2017-09-16T11:21:06.805Z,37.00
2017-09-16T11:23:49.653Z,40.17
2017-09-16T11:26:31.293Z,31.37
2017-09-16T11:29:09.268Z,30.73
2017-09-16T11:31:49.354Z,38.87
2017-09-16T11:34:36.486Z,34.37
2017-09-16T11:37:20.811Z,30.73
2017-09-16T11:40:06.875Z,32.50
2017-09-16T11:42:48.917Z,29.03
2017-09-16T11:45:36.818Z,28.60
2017-09-16T11:48:18.902Z,28.97
2017-09-16T11:51:09.689Z,28.07
2017-09-16T11:53:56.756Z,35.90
2017-09-16T11:56:38.810Z,29.00
2017-09-16T11:59:19.506Z,31.90
2017-09-16T12:02:01.116Z,26.00
2017-09-16T12:04:49.911Z,28.63
2017-09-16T12:07:36.464Z,34.73
2017-09-16T12:10:19.324Z,26.07
2017-09-16T12:12:56.178Z,31.43
2017-09-16T12:15:43.227Z,34.80
2017-09-16T12:18:27.864Z,29.23
2017-09-16T12:21:09.318Z,27.03
2017-09-16T12:23:48.607Z,30.10
2017-09-16T12:26:30.644Z,27.43
2017-09-16T12:29:10.319Z,24.13
2017-09-16T12:31:50.221Z,32.00
2017-09-16T12:34:35.782Z,29.87
2017-09-16T12:37:29.453Z,29.80
2017-09-16T12:40:28.153Z,34.77
2017-09-16T12:43:13.039Z,35.87
2017-09-16T12:45:57.657Z,36.47
2017-09-16T12:48:47.580Z,36.77
2017-09-16T12:51:29.205Z,41.60
2017-09-16T12:54:12.832Z,26.63
2017-09-16T12:56:56.775Z,39.97
2017-09-16T12:59:38.606Z,32.03
2017-09-16T13:02:29.726Z,38.07
2017-09-16T13:05:16.195Z,36.87
2017-09-16T13:08:03.577Z,37.53
2017-09-16T13:10:42.380Z,42.30
2017-09-16T13:13:23.071Z,34.20
2017-09-16T13:16:05.416Z,37.77
2017-09-16T13:18:53.282Z,33.63
2017-09-16T13:21:39.991Z,44.33
2017-09-16T13:24:20.713Z,38.17
2017-09-16T13:27:10.864Z,46.90
2017-09-16T13:29:57.876Z,39.13
2017-09-16T13:32:43.645Z,35.37
2017-09-16T13:35:29.707Z,36.17
2017-09-16T13:38:13.887Z,38.07
2017-09-16T13:40:56.829Z,38.87
2017-09-16T13:43:46.642Z,38.20
2017-09-16T13:46:29.606Z,43.10
2017-09-16T13:49:09.901Z,36.37
2017-09-16T13:51:52.263Z,38.50
2017-09-16T13:54:38.011Z,34.83
2017-09-16T13:57:23.052Z,40.40
2017-09-16T14:00:03.206Z,30.50
2017-09-16T14:02:45.762Z,34.00
2017-09-16T14:05:29.172Z,36.30
2017-09-16T14:08:15.501Z,32.70
2017-09-16T14:10:55.768Z,37.40
2017-09-16T14:13:38.488Z,36.27
2017-09-16T14:16:23.119Z,29.13
2017-09-16T14:19:01.968Z,27.23
2017-09-16T14:24:25.046Z,28.17
2017-09-16T14:27:05.522Z,31.87
2017-09-16T14:29:46.201Z,24.20
2017-09-16T14:32:29.632Z,28.47
2017-09-16T14:35:10.605Z,29.40
2017-09-16T14:37:51.909Z,29.53
2017-09-16T14:40:39.488Z,26.27
2017-09-16T14:43:29.212Z,22.30
2017-09-16T14:46:12.847Z,22.00
2017-09-16T14:48:55.479Z,23.03
2017-09-16T14:54:31.872Z,23.60
2017-09-16T14:57:11.829Z,21.60
2017-09-16T14:59:55.604Z,25.10
2017-09-16T15:02:40.413Z,20.90
2017-09-16T15:05:19.794Z,19.43
2017-09-16T15:08:01.990Z,23.07
2017-09-16T15:10:43.044Z,19.87
2017-09-16T15:13:23.909Z,24.40
2017-09-16T15:16:06.332Z,18.80
2017-09-16T15:18:46.778Z,22.97
2017-09-16T15:21:24.290Z,19.43
2017-09-16T15:24:12.890Z,16.57
2017-09-16T15:27:01.288Z,19.53
2017-09-16T15:29:48.451Z,24.93
2017-09-16T15:32:33.372Z,18.80
2017-09-16T15:35:13.441Z,19.80
2017-09-16T15:38:02.403Z,20.30
2017-09-16T15:40:43.234Z,18.67
2017-09-16T15:43:28.884Z,21.40
2017-09-16T15:46:10.567Z,20.27
2017-09-16T15:48:53.576Z,19.20
2017-09-16T15:51:33.647Z,17.07
2017-09-16T15:54:18.926Z,22.60
2017-09-16T15:57:00.631Z,21.40
2017-09-16T15:59:45.788Z,20.70
2017-09-16T16:02:26.120Z,17.70
2017-09-16T16:05:07.674Z,17.23
2017-09-16T16:07:59.742Z,21.50
2017-09-16T16:10:39.073Z,19.90
2017-09-16T16:13:23.555Z,19.03
2017-09-16T16:16:05.907Z,19.17
2017-09-16T16:18:47.756Z,19.73
2017-09-16T16:21:29.315Z,17.53
2017-09-16T16:24:12.508Z,22.30
2017-09-16T16:26:51.909Z,16.73
2017-09-16T16:29:33.713Z,17.90
2017-09-16T16:32:14.436Z,18.30
2017-09-16T16:34:55.464Z,15.90
2017-09-16T16:37:42.468Z,18.30
2017-09-16T16:40:22.631Z,15.97
2017-09-16T16:43:03.205Z,17.40
2017-09-16T16:45:48.104Z,13.90
2017-09-16T16:48:38.133Z,12.87
2017-09-16T16:54:10.476Z,11.50
2017-09-16T16:56:50.010Z,11.83
2017-09-16T17:02:17.502Z,11.00
2017-09-16T17:04:57.515Z,12.07
2017-09-16T17:07:45.377Z,11.73
2017-09-16T17:10:24.449Z,10.63
2017-09-16T17:13:10.080Z,9.97
2017-09-16T17:15:49.534Z,10.23
2017-09-16T17:24:41.491Z,10.43
2017-09-16T17:27:21.829Z,8.73
2017-09-16T17:30:00.456Z,7.83
2017-09-16T17:32:36.728Z,7.87
2017-09-16T17:35:18.291Z,8.60
2017-09-16T17:37:55.615Z,8.17
2017-09-16T17:40:34.859Z,7.13
2017-09-16T17:43:16.637Z,6.77
2017-09-16T17:45:54.241Z,6.23
2017-09-16T17:48:30.106Z,6.30
2017-09-16T17:51:14.880Z,6.10
2017-09-16T17:53:50.501Z,5.97
2017-09-16T17:56:25.356Z,6.67
2017-09-16T17:58:58.491Z,6.00
2017-09-16T18:01:35.791Z,6.80
2017-09-16T18:04:08.818Z,5.77
2017-09-16T18:06:41.705Z,5.60
2017-09-16T18:09:17.738Z,5.80
2017-09-16T18:11:54.688Z,6.23
2017-09-16T18:14:29.227Z,10.87
2017-09-16T18:17:04.269Z,5.20
2017-09-16T18:19:38.600Z,6.07
2017-09-16T18:22:11.889Z,4.53
2017-09-16T18:24:45.832Z,4.97
2017-09-16T18:27:23.107Z,6.10
2017-09-16T18:29:56.580Z,4.60
2017-09-16T18:32:31.679Z,6.27
2017-09-16T18:35:04.966Z,6.10
2017-09-16T18:37:38.837Z,6.10
2017-09-16T18:40:11.761Z,5.57
2017-09-16T18:42:45.398Z,5.40
2017-09-16T18:45:17.226Z,5.57
2017-09-16T18:47:49.089Z,7.07
2017-09-16T18:50:21.893Z,6.00
2017-09-16T18:52:53.958Z,6.10
2017-09-16T18:55:27.556Z,6.50
2017-09-16T18:57:59.505Z,6.70
2017-09-16T19:00:30.552Z,6.13
2017-09-16T19:03:02.205Z,9.60
2017-09-16T19:05:35.440Z,6.53
2017-09-16T19:08:07.115Z,6.80
2017-09-16T19:10:39.644Z,6.20
2017-09-16T19:13:11.459Z,6.70
2017-09-16T19:15:42.903Z,7.23
2017-09-16T19:18:14.289Z,7.50
2017-09-16T19:20:46.457Z,9.77
2017-09-16T19:23:18.560Z,8.30
2017-09-16T19:25:51.140Z,8.90
2017-09-16T19:28:21.988Z,8.17
2017-09-16T19:30:52.661Z,10.90
2017-09-16T19:33:23.246Z,9.10
2017-09-16T19:35:54.710Z,10.90
2017-09-16T19:38:25.855Z,9.80
2017-09-16T19:40:57.490Z,12.00
2017-09-16T19:43:27.891Z,12.43
2017-09-16T19:45:59.374Z,10.17
2017-09-16T19:48:29.765Z,12.60
2017-09-16T19:51:07.728Z,12.57
2017-09-16T19:53:38.296Z,13.67
2017-09-16T19:56:09.934Z,14.17
2017-09-16T19:58:40.746Z,14.03
2017-09-16T20:01:11.520Z,12.53
2017-09-16T20:03:43.004Z,13.20
2017-09-16T20:06:13.705Z,17.17
2017-09-16T20:08:44.363Z,15.40
2017-09-16T20:11:15.202Z,14.80
2017-09-16T20:13:46.356Z,14.53
2017-09-16T20:16:17.250Z,14.33
2017-09-16T20:18:47.902Z,15.50
2017-09-16T20:21:19.538Z,14.93
2017-09-16T20:23:50.110Z,14.37
2017-09-16T20:26:20.668Z,14.60
2017-09-16T20:28:51.254Z,14.10
2017-09-16T20:31:22.738Z,12.60
2017-09-16T20:33:54.390Z,14.57
2017-09-16T20:36:25.330Z,14.53
2017-09-16T20:38:56.193Z,34.57
2017-09-16T20:41:30.233Z,41.93
2017-09-16T20:44:01.219Z,50.60
2017-09-16T20:46:32.025Z,68.87
2017-09-16T20:49:02.723Z,257.03
2017-09-16T20:51:33.288Z,45.37
2017-09-16T20:54:03.949Z,32.70
2017-09-16T20:56:34.655Z,33.50
2017-09-16T20:59:05.901Z,38.80
2017-09-16T21:01:36.649Z,35.17
2017-09-16T21:04:07.266Z,35.67
2017-09-16T21:06:38.952Z,35.10
2017-09-16T21:09:09.448Z,30.00
2017-09-16T21:11:40.007Z,29.37
2017-09-16T21:14:10.513Z,30.20
2017-09-16T21:16:40.934Z,26.17
2017-09-16T21:19:13.028Z,25.60
2017-09-16T21:21:43.619Z,25.00
2017-09-16T21:24:14.942Z,23.60
2017-09-16T21:26:45.508Z,19.83
2017-09-16T21:29:16.971Z,24.03
2017-09-16T21:31:47.581Z,20.40
2017-09-16T21:34:18.306Z,22.57
2017-09-16T21:36:49.806Z,19.80
2017-09-16T21:39:20.278Z,19.47
2017-09-16T21:41:50.811Z,21.33
2017-09-16T21:44:22.319Z,20.70
2017-09-16T21:46:52.972Z,20.80
2017-09-16T21:49:23.566Z,19.70
2017-09-16T21:51:53.917Z,19.27
2017-09-16T21:54:24.440Z,18.30
2017-09-16T21:56:55.045Z,17.93
2017-09-16T21:59:25.500Z,17.27
2017-09-16T22:01:56.044Z,22.80
2017-09-16T22:04:26.598Z,16.90
2017-09-16T22:06:57.292Z,15.93
2017-09-16T22:09:28.067Z,18.13
2017-09-16T22:11:58.705Z,20.20
2017-09-16T22:14:29.931Z,18.50
2017-09-16T22:17:00.547Z,20.63
2017-09-16T22:19:31.715Z,16.27
2017-09-16T22:22:02.303Z,16.00
2017-09-16T22:24:33.049Z,16.13
2017-09-16T22:27:04.539Z,15.30
2017-09-16T22:29:35.798Z,16.87
2017-09-16T22:32:06.349Z,16.87
2017-09-16T22:34:36.828Z,18.77
2017-09-16T22:37:07.501Z,15.03
2017-09-16T22:39:37.986Z,18.87
2017-09-16T22:42:08.479Z,18.13
2017-09-16T22:44:38.822Z,16.70
2017-09-16T22:47:09.352Z,17.73
2017-09-16T22:49:39.810Z,14.63
2017-09-16T22:52:10.353Z,17.03
2017-09-16T22:54:40.932Z,14.80
2017-09-16T22:57:12.829Z,15.40
2017-09-16T22:59:43.330Z,17.13
2017-09-16T23:02:13.994Z,14.37
2017-09-16T23:04:44.679Z,14.27
2017-09-16T23:07:15.086Z,16.57
2017-09-16T23:09:45.760Z,13.37
2017-09-16T23:12:16.226Z,14.47
2017-09-16T23:14:46.606Z,12.80
2017-09-16T23:17:17.080Z,13.90
2017-09-16T23:19:47.457Z,13.53
2017-09-16T23:22:17.901Z,12.87
2017-09-16T23:24:48.281Z,12.13
2017-09-16T23:27:18.747Z,12.00
2017-09-16T23:29:49.047Z,10.70
2017-09-16T23:32:20.387Z,12.70
2017-09-16T23:34:51.391Z,11.30
2017-09-16T23:37:22.537Z,12.30
2017-09-16T23:39:53.678Z,11.40
2017-09-16T23:42:24.891Z,14.30
2017-09-16T23:44:55.504Z,12.07
2017-09-16T23:47:26.217Z,11.43
2017-09-16T23:49:56.868Z,12.30
2017-09-16T23:52:27.404Z,12.10
2017-09-16T23:54:59.390Z,10.17
2017-09-16T23:57:29.944Z,12.77
